sensor_id;sensor_type;location;lat;lon;timestamp;temperature;humidity
63802;DHT22;49949;43.060;25.624;2024-02-15T00:02:13;6.00;99.90
63802;DHT22;49949;43.060;25.624;2024-02-15T00:04:39;5.80;99.90
63802;DHT22;49949;43.060;25.624;2024-02-15T00:07:05;5.80;99.90
63802;DHT22;49949;43.060;25.624;2024-02-15T00:09:31;5.80;99.90
63802;DHT22;49949;43.060;25.624;2024-02-15T00:11:56;5.90;99.90
63802;DHT22;49949;43.060;25.624;2024-02-15T00:14:22;5.90;99.90
63802;DHT22;49949;43.060;25.624;2024-02-15T00:16:48;5.90;99.90
63802;DHT22;49949;43.060;25.624;2024-02-15T00:19:14;5.80;99.90
63802;DHT22;49949;43.060;25.624;2024-02-15T00:21:46;5.80;99.90
63802;DHT22;49949;43.060;25.624;2024-02-15T00:24:12;5.80;99.90
63802;DHT22;49949;43.060;25.624;2024-02-15T00:26:38;5.80;99.90
63802;DHT22;49949;43.060;25.624;2024-02-15T00:29:03;5.80;99.90
63802;DHT22;49949;43.060;25.624;2024-02-15T00:31:29;5.80;99.90
63802;DHT22;49949;43.060;25.624;2024-02-15T00:33:55;5.80;99.90
63802;DHT22;49949;43.060;25.624;2024-02-15T00:36:21;5.80;99.90
63802;DHT22;49949;43.060;25.624;2024-02-15T00:38:46;5.80;99.90
63802;DHT22;49949;43.060;25.624;2024-02-15T00:41:12;5.80;99.90
63802;DHT22;49949;43.060;25.624;2024-02-15T00:43:38;5.80;99.90
63802;DHT22;49949;43.060;25.624;2024-02-15T00:46:04;5.80;99.90
63802;DHT22;49949;43.060;25.624;2024-02-15T00:48:29;5.80;99.90
63802;DHT22;49949;43.060;25.624;2024-02-15T00:50:58;5.80;99.90
63802;DHT22;49949;43.060;25.624;2024-02-15T00:53:24;5.80;99.90
63802;DHT22;49949;43.060;25.624;2024-02-15T00:55:51;5.80;99.90
63802;DHT22;49949;43.060;25.624;2024-02-15T00:58:16;5.80;99.90
63802;DHT22;49949;43.060;25.624;2024-02-15T01:00:42;5.70;99.90
63802;DHT22;49949;43.060;25.624;2024-02-15T01:03:08;5.70;99.90
63802;DHT22;49949;43.060;25.624;2024-02-15T01:05:33;5.70;99.90
63802;DHT22;49949;43.060;25.624;2024-02-15T01:07:59;5.70;99.90
63802;DHT22;49949;43.060;25.624;2024-02-15T01:10:25;5.60;99.90
63802;DHT22;49949;43.060;25.624;2024-02-15T01:12:52;5.60;99.90
63802;DHT22;49949;43.060;25.624;2024-02-15T01:15:17;5.50;99.90
63802;DHT22;49949;43.060;25.624;2024-02-15T01:17:45;5.50;99.90
63802;DHT22;49949;43.060;25.624;2024-02-15T01:20:11;5.50;99.90
63802;DHT22;49949;43.060;25.624;2024-02-15T01:22:37;5.40;99.90
63802;DHT22;49949;43.060;25.624;2024-02-15T01:25:03;5.40;99.90
63802;DHT22;49949;43.060;25.624;2024-02-15T01:27:29;5.40;99.90
63802;DHT22;49949;43.060;25.624;2024-02-15T01:29:58;5.30;99.90
63802;DHT22;49949;43.060;25.624;2024-02-15T01:32:24;5.30;99.90
63802;DHT22;49949;43.060;25.624;2024-02-15T01:34:51;5.30;99.90
63802;DHT22;49949;43.060;25.624;2024-02-15T01:37:20;5.20;99.90
63802;DHT22;49949;43.060;25.624;2024-02-15T01:39:46;5.20;99.90
63802;DHT22;49949;43.060;25.624;2024-02-15T01:42:12;5.10;99.90
63802;DHT22;49949;43.060;25.624;2024-02-15T01:44:40;5.10;99.90
63802;DHT22;49949;43.060;25.624;2024-02-15T01:47:06;5.10;99.90
63802;DHT22;49949;43.060;25.624;2024-02-15T01:49:32;5.10;99.90
63802;DHT22;49949;43.060;25.624;2024-02-15T01:51:58;5.10;99.90
63802;DHT22;49949;43.060;25.624;2024-02-15T01:54:27;5.10;99.90
63802;DHT22;49949;43.060;25.624;2024-02-15T01:56:53;5.10;99.90
63802;DHT22;49949;43.060;25.624;2024-02-15T01:59:22;5.10;99.90
63802;DHT22;49949;43.060;25.624;2024-02-15T02:01:48;5.00;99.90
63802;DHT22;49949;43.060;25.624;2024-02-15T02:04:14;5.10;99.90
63802;DHT22;49949;43.060;25.624;2024-02-15T02:06:40;5.10;99.90
63802;DHT22;49949;43.060;25.624;2024-02-15T02:09:10;5.00;99.90
63802;DHT22;49949;43.060;25.624;2024-02-15T02:11:38;5.00;99.90
63802;DHT22;49949;43.060;25.624;2024-02-15T02:14:04;5.00;99.90
63802;DHT22;49949;43.060;25.624;2024-02-15T02:16:31;5.00;99.90
63802;DHT22;49949;43.060;25.624;2024-02-15T02:19:01;4.90;99.90
63802;DHT22;49949;43.060;25.624;2024-02-15T02:21:28;5.00;99.90
63802;DHT22;49949;43.060;25.624;2024-02-15T02:23:56;4.90;99.90
63802;DHT22;49949;43.060;25.624;2024-02-15T02:26:24;4.90;99.90
63802;DHT22;49949;43.060;25.624;2024-02-15T02:28:50;4.90;99.90
63802;DHT22;49949;43.060;25.624;2024-02-15T02:31:19;5.00;99.90
63802;DHT22;49949;43.060;25.624;2024-02-15T02:33:52;4.90;99.90
63802;DHT22;49949;43.060;25.624;2024-02-15T02:36:19;5.00;99.90
63802;DHT22;49949;43.060;25.624;2024-02-15T02:38:45;5.00;99.90
63802;DHT22;49949;43.060;25.624;2024-02-15T02:41:11;5.00;99.90
63802;DHT22;49949;43.060;25.624;2024-02-15T02:43:39;4.90;99.90
63802;DHT22;49949;43.060;25.624;2024-02-15T02:46:05;4.80;99.90
63802;DHT22;49949;43.060;25.624;2024-02-15T02:48:31;4.80;99.90
63802;DHT22;49949;43.060;25.624;2024-02-15T02:50:57;4.90;99.90
63802;DHT22;49949;43.060;25.624;2024-02-15T02:53:23;4.90;99.90
63802;DHT22;49949;43.060;25.624;2024-02-15T02:55:51;5.00;99.90
63802;DHT22;49949;43.060;25.624;2024-02-15T02:58:16;4.90;99.90
63802;DHT22;49949;43.060;25.624;2024-02-15T03:00:42;4.80;99.90
63802;DHT22;49949;43.060;25.624;2024-02-15T03:03:08;4.80;99.90
63802;DHT22;49949;43.060;25.624;2024-02-15T03:05:35;4.90;99.90
63802;DHT22;49949;43.060;25.624;2024-02-15T03:08:00;4.80;99.90
63802;DHT22;49949;43.060;25.624;2024-02-15T03:10:26;4.80;99.90
63802;DHT22;49949;43.060;25.624;2024-02-15T03:12:52;4.70;99.90
63802;DHT22;49949;43.060;25.624;2024-02-15T03:15:18;4.70;99.90
63802;DHT22;49949;43.060;25.624;2024-02-15T03:17:45;4.70;99.90
63802;DHT22;49949;43.060;25.624;2024-02-15T03:20:12;4.70;99.90
63802;DHT22;49949;43.060;25.624;2024-02-15T03:25:18;4.70;99.90
63802;DHT22;49949;43.060;25.624;2024-02-15T03:27:44;4.60;99.90
63802;DHT22;49949;43.060;25.624;2024-02-15T03:30:10;4.60;99.90
63802;DHT22;49949;43.060;25.624;2024-02-15T03:32:36;4.60;99.90
63802;DHT22;49949;43.060;25.624;2024-02-15T03:35:02;4.70;99.90
63802;DHT22;49949;43.060;25.624;2024-02-15T03:37:29;4.70;99.90
63802;DHT22;49949;43.060;25.624;2024-02-15T03:39:54;4.70;99.90
63802;DHT22;49949;43.060;25.624;2024-02-15T03:42:20;4.60;99.90
63802;DHT22;49949;43.060;25.624;2024-02-15T03:44:46;4.50;99.90
63802;DHT22;49949;43.060;25.624;2024-02-15T03:47:13;4.50;99.90
63802;DHT22;49949;43.060;25.624;2024-02-15T03:49:41;4.60;99.90
63802;DHT22;49949;43.060;25.624;2024-02-15T03:52:08;4.60;99.90
63802;DHT22;49949;43.060;25.624;2024-02-15T03:54:36;4.60;99.90
63802;DHT22;49949;43.060;25.624;2024-02-15T03:57:02;4.60;99.90
63802;DHT22;49949;43.060;25.624;2024-02-15T03:59:27;4.60;99.90
63802;DHT22;49949;43.060;25.624;2024-02-15T04:01:54;4.60;99.90
63802;DHT22;49949;43.060;25.624;2024-02-15T04:04:20;4.70;99.90
63802;DHT22;49949;43.060;25.624;2024-02-15T04:06:52;4.70;99.90
63802;DHT22;49949;43.060;25.624;2024-02-15T04:09:18;4.60;99.90
63802;DHT22;49949;43.060;25.624;2024-02-15T04:11:44;4.50;99.90
63802;DHT22;49949;43.060;25.624;2024-02-15T04:14:18;4.50;99.90
63802;DHT22;49949;43.060;25.624;2024-02-15T04:16:44;4.60;99.90
63802;DHT22;49949;43.060;25.624;2024-02-15T04:19:11;4.60;99.90
63802;DHT22;49949;43.060;25.624;2024-02-15T04:21:36;4.50;99.90
63802;DHT22;49949;43.060;25.624;2024-02-15T04:24:03;4.40;99.90
63802;DHT22;49949;43.060;25.624;2024-02-15T04:26:30;4.40;99.90
63802;DHT22;49949;43.060;25.624;2024-02-15T04:28:57;4.50;99.90
63802;DHT22;49949;43.060;25.624;2024-02-15T04:31:24;4.50;99.90
63802;DHT22;49949;43.060;25.624;2024-02-15T04:33:55;4.40;99.90
63802;DHT22;49949;43.060;25.624;2024-02-15T04:36:22;4.30;99.90
63802;DHT22;49949;43.060;25.624;2024-02-15T04:38:51;4.40;99.90
63802;DHT22;49949;43.060;25.624;2024-02-15T04:41:18;4.50;99.90
63802;DHT22;49949;43.060;25.624;2024-02-15T04:43:48;4.30;99.90
63802;DHT22;49949;43.060;25.624;2024-02-15T04:46:13;4.30;99.90
63802;DHT22;49949;43.060;25.624;2024-02-15T04:48:40;4.30;99.90
63802;DHT22;49949;43.060;25.624;2024-02-15T04:51:09;4.30;99.90
63802;DHT22;49949;43.060;25.624;2024-02-15T04:53:38;4.30;99.90
63802;DHT22;49949;43.060;25.624;2024-02-15T04:56:07;4.20;99.90
63802;DHT22;49949;43.060;25.624;2024-02-15T04:58:39;4.20;99.90
63802;DHT22;49949;43.060;25.624;2024-02-15T05:01:12;4.30;99.90
63802;DHT22;49949;43.060;25.624;2024-02-15T05:03:38;4.30;99.90
63802;DHT22;49949;43.060;25.624;2024-02-15T05:06:04;4.40;99.90
63802;DHT22;49949;43.060;25.624;2024-02-15T05:08:30;4.50;99.90
63802;DHT22;49949;43.060;25.624;2024-02-15T05:10:57;4.50;99.90
63802;DHT22;49949;43.060;25.624;2024-02-15T05:13:26;4.50;99.90
63802;DHT22;49949;43.060;25.624;2024-02-15T05:15:52;4.60;99.90
63802;DHT22;49949;43.060;25.624;2024-02-15T05:18:17;4.60;99.90
63802;DHT22;49949;43.060;25.624;2024-02-15T05:20:44;4.60;99.90
63802;DHT22;49949;43.060;25.624;2024-02-15T05:23:09;4.60;99.90
63802;DHT22;49949;43.060;25.624;2024-02-15T05:25:35;4.60;99.90
63802;DHT22;49949;43.060;25.624;2024-02-15T05:28:01;4.60;99.90
63802;DHT22;49949;43.060;25.624;2024-02-15T05:30:27;4.60;99.90
63802;DHT22;49949;43.060;25.624;2024-02-15T05:32:53;4.60;99.90
63802;DHT22;49949;43.060;25.624;2024-02-15T05:35:19;4.60;99.90
63802;DHT22;49949;43.060;25.624;2024-02-15T05:37:44;4.70;99.90
63802;DHT22;49949;43.060;25.624;2024-02-15T05:40:11;4.70;99.90
63802;DHT22;49949;43.060;25.624;2024-02-15T05:42:43;4.70;99.90
63802;DHT22;49949;43.060;25.624;2024-02-15T05:47:55;4.80;99.90
63802;DHT22;49949;43.060;25.624;2024-02-15T05:50:21;4.80;99.90
63802;DHT22;49949;43.060;25.624;2024-02-15T05:52:48;4.80;99.90
63802;DHT22;49949;43.060;25.624;2024-02-15T05:55:13;4.80;99.90
63802;DHT22;49949;43.060;25.624;2024-02-15T05:57:43;4.80;99.90
63802;DHT22;49949;43.060;25.624;2024-02-15T06:00:09;4.90;99.90
63802;DHT22;49949;43.060;25.624;2024-02-15T06:02:35;4.90;99.90
63802;DHT22;49949;43.060;25.624;2024-02-15T06:05:01;4.90;99.90
63802;DHT22;49949;43.060;25.624;2024-02-15T06:07:29;4.90;99.90
63802;DHT22;49949;43.060;25.624;2024-02-15T06:09:57;4.90;99.90
63802;DHT22;49949;43.060;25.624;2024-02-15T06:12:23;5.00;99.90
63802;DHT22;49949;43.060;25.624;2024-02-15T06:14:49;5.00;99.90
63802;DHT22;49949;43.060;25.624;2024-02-15T06:17:15;5.00;99.90
63802;DHT22;49949;43.060;25.624;2024-02-15T06:19:40;5.00;99.90
63802;DHT22;49949;43.060;25.624;2024-02-15T06:22:06;5.00;99.90
63802;DHT22;49949;43.060;25.624;2024-02-15T06:24:33;5.00;99.90
63802;DHT22;49949;43.060;25.624;2024-02-15T06:26:59;5.00;99.90
63802;DHT22;49949;43.060;25.624;2024-02-15T06:29:25;5.00;99.90
63802;DHT22;49949;43.060;25.624;2024-02-15T06:32:10;5.10;99.90
63802;DHT22;49949;43.060;25.624;2024-02-15T06:34:54;5.10;99.90
63802;DHT22;49949;43.060;25.624;2024-02-15T06:37:39;5.10;99.90
63802;DHT22;49949;43.060;25.624;2024-02-15T06:40:24;5.10;99.90
63802;DHT22;49949;43.060;25.624;2024-02-15T06:42:50;5.20;99.90
63802;DHT22;49949;43.060;25.624;2024-02-15T06:45:16;5.20;99.90
63802;DHT22;49949;43.060;25.624;2024-02-15T06:47:43;5.30;99.90
63802;DHT22;49949;43.060;25.624;2024-02-15T06:50:11;5.30;99.90
63802;DHT22;49949;43.060;25.624;2024-02-15T06:52:41;5.30;99.90
63802;DHT22;49949;43.060;25.624;2024-02-15T06:55:07;5.30;99.90
63802;DHT22;49949;43.060;25.624;2024-02-15T06:57:34;5.30;99.90
63802;DHT22;49949;43.060;25.624;2024-02-15T07:00:03;5.30;99.90
63802;DHT22;49949;43.060;25.624;2024-02-15T07:02:33;5.40;99.90
63802;DHT22;49949;43.060;25.624;2024-02-15T07:04:59;5.60;99.90
63802;DHT22;49949;43.060;25.624;2024-02-15T07:07:25;5.60;99.90
63802;DHT22;49949;43.060;25.624;2024-02-15T07:09:51;5.60;99.90
63802;DHT22;49949;43.060;25.624;2024-02-15T07:12:16;5.60;99.90
63802;DHT22;49949;43.060;25.624;2024-02-15T07:14:45;5.80;99.90
63802;DHT22;49949;43.060;25.624;2024-02-15T07:17:11;5.90;99.90
63802;DHT22;49949;43.060;25.624;2024-02-15T07:19:37;5.90;99.90
63802;DHT22;49949;43.060;25.624;2024-02-15T07:22:03;5.90;99.90
63802;DHT22;49949;43.060;25.624;2024-02-15T07:24:29;6.00;99.90
63802;DHT22;49949;43.060;25.624;2024-02-15T07:26:55;6.10;99.90
63802;DHT22;49949;43.060;25.624;2024-02-15T07:29:21;6.20;99.90
63802;DHT22;49949;43.060;25.624;2024-02-15T07:31:49;6.30;99.90
63802;DHT22;49949;43.060;25.624;2024-02-15T07:34:15;6.30;99.90
63802;DHT22;49949;43.060;25.624;2024-02-15T07:36:42;6.30;99.90
63802;DHT22;49949;43.060;25.624;2024-02-15T07:39:08;6.20;99.90
63802;DHT22;49949;43.060;25.624;2024-02-15T07:41:38;6.30;99.90
63802;DHT22;49949;43.060;25.624;2024-02-15T07:44:04;6.40;99.90
63802;DHT22;49949;43.060;25.624;2024-02-15T07:46:29;6.40;99.90
63802;DHT22;49949;43.060;25.624;2024-02-15T07:48:55;6.50;99.90
63802;DHT22;49949;43.060;25.624;2024-02-15T07:51:22;6.50;99.90
63802;DHT22;49949;43.060;25.624;2024-02-15T07:53:48;6.60;99.90
63802;DHT22;49949;43.060;25.624;2024-02-15T07:56:16;6.60;99.90
63802;DHT22;49949;43.060;25.624;2024-02-15T07:58:42;6.80;99.90
63802;DHT22;49949;43.060;25.624;2024-02-15T08:01:15;6.90;99.90
63802;DHT22;49949;43.060;25.624;2024-02-15T08:03:42;6.90;99.90
63802;DHT22;49949;43.060;25.624;2024-02-15T08:06:15;7.00;99.90
63802;DHT22;49949;43.060;25.624;2024-02-15T08:08:42;7.00;99.90
63802;DHT22;49949;43.060;25.624;2024-02-15T08:11:11;7.10;99.90
63802;DHT22;49949;43.060;25.624;2024-02-15T08:13:47;7.40;99.90
63802;DHT22;49949;43.060;25.624;2024-02-15T08:16:23;7.50;99.90
63802;DHT22;49949;43.060;25.624;2024-02-15T08:18:50;7.60;99.90
63802;DHT22;49949;43.060;25.624;2024-02-15T08:21:26;7.70;99.90
63802;DHT22;49949;43.060;25.624;2024-02-15T08:23:52;7.70;99.90
63802;DHT22;49949;43.060;25.624;2024-02-15T08:26:18;7.60;99.90
63802;DHT22;49949;43.060;25.624;2024-02-15T08:28:43;7.40;99.90
63802;DHT22;49949;43.060;25.624;2024-02-15T08:31:09;7.40;99.90
63802;DHT22;49949;43.060;25.624;2024-02-15T08:33:36;7.50;99.90
63802;DHT22;49949;43.060;25.624;2024-02-15T08:36:04;7.60;99.90
63802;DHT22;49949;43.060;25.624;2024-02-15T08:38:31;7.70;99.90
63802;DHT22;49949;43.060;25.624;2024-02-15T08:40:56;7.70;99.90
63802;DHT22;49949;43.060;25.624;2024-02-15T08:43:22;7.70;99.90
63802;DHT22;49949;43.060;25.624;2024-02-15T08:45:48;7.90;99.90
63802;DHT22;49949;43.060;25.624;2024-02-15T08:48:22;8.10;99.90
63802;DHT22;49949;43.060;25.624;2024-02-15T08:51:13;8.20;99.90
63802;DHT22;49949;43.060;25.624;2024-02-15T08:53:50;8.30;99.90
63802;DHT22;49949;43.060;25.624;2024-02-15T08:56:16;8.30;99.90
63802;DHT22;49949;43.060;25.624;2024-02-15T08:58:42;8.50;99.90
63802;DHT22;49949;43.060;25.624;2024-02-15T09:01:08;8.70;99.90
63802;DHT22;49949;43.060;25.624;2024-02-15T09:03:34;8.80;99.90
63802;DHT22;49949;43.060;25.624;2024-02-15T09:05:59;9.00;99.90
63802;DHT22;49949;43.060;25.624;2024-02-15T09:08:29;9.10;99.90
63802;DHT22;49949;43.060;25.624;2024-02-15T09:10:55;9.30;99.90
63802;DHT22;49949;43.060;25.624;2024-02-15T09:13:23;9.30;99.90
63802;DHT22;49949;43.060;25.624;2024-02-15T09:15:48;9.30;99.90
63802;DHT22;49949;43.060;25.624;2024-02-15T09:18:15;9.60;99.90
63802;DHT22;49949;43.060;25.624;2024-02-15T09:20:46;9.70;99.90
63802;DHT22;49949;43.060;25.624;2024-02-15T09:23:14;9.80;99.90
63802;DHT22;49949;43.060;25.624;2024-02-15T09:25:41;9.90;99.90
63802;DHT22;49949;43.060;25.624;2024-02-15T09:28:09;9.80;99.90
63802;DHT22;49949;43.060;25.624;2024-02-15T09:30:38;10.00;99.90
63802;DHT22;49949;43.060;25.624;2024-02-15T09:33:05;10.10;99.90
63802;DHT22;49949;43.060;25.624;2024-02-15T09:35:31;10.10;99.90
63802;DHT22;49949;43.060;25.624;2024-02-15T09:37:57;10.20;99.90
63802;DHT22;49949;43.060;25.624;2024-02-15T09:40:23;9.90;99.90
63802;DHT22;49949;43.060;25.624;2024-02-15T09:43:09;9.60;99.90
63802;DHT22;49949;43.060;25.624;2024-02-15T09:45:38;9.80;99.90
63802;DHT22;49949;43.060;25.624;2024-02-15T09:48:06;9.90;99.90
63802;DHT22;49949;43.060;25.624;2024-02-15T09:50:35;9.90;99.90
63802;DHT22;49949;43.060;25.624;2024-02-15T09:53:02;9.90;99.90
63802;DHT22;49949;43.060;25.624;2024-02-15T09:55:34;9.90;99.90
63802;DHT22;49949;43.060;25.624;2024-02-15T09:58:01;10.00;99.90
63802;DHT22;49949;43.060;25.624;2024-02-15T10:00:26;10.00;99.90
63802;DHT22;49949;43.060;25.624;2024-02-15T10:02:53;10.00;99.90
63802;DHT22;49949;43.060;25.624;2024-02-15T10:05:19;10.00;99.90
63802;DHT22;49949;43.060;25.624;2024-02-15T10:07:46;10.00;99.90
63802;DHT22;49949;43.060;25.624;2024-02-15T10:10:22;10.00;99.90
63802;DHT22;49949;43.060;25.624;2024-02-15T10:12:49;10.10;99.90
63802;DHT22;49949;43.060;25.624;2024-02-15T10:15:31;10.10;99.90
63802;DHT22;49949;43.060;25.624;2024-02-15T10:17:58;10.00;99.90
63802;DHT22;49949;43.060;25.624;2024-02-15T10:20:27;10.00;99.90
63802;DHT22;49949;43.060;25.624;2024-02-15T10:23:13;10.00;99.90
63802;DHT22;49949;43.060;25.624;2024-02-15T10:25:48;10.00;99.90
63802;DHT22;49949;43.060;25.624;2024-02-15T10:28:20;10.20;99.90
63802;DHT22;49949;43.060;25.624;2024-02-15T10:30:49;10.20;99.90
63802;DHT22;49949;43.060;25.624;2024-02-15T10:33:19;10.30;99.90
63802;DHT22;49949;43.060;25.624;2024-02-15T10:35:46;10.20;99.90
63802;DHT22;49949;43.060;25.624;2024-02-15T10:38:12;10.10;99.90
63802;DHT22;49949;43.060;25.624;2024-02-15T10:40:39;10.10;99.90
63802;DHT22;49949;43.060;25.624;2024-02-15T10:43:09;10.30;99.90
63802;DHT22;49949;43.060;25.624;2024-02-15T10:45:39;10.30;99.90
63802;DHT22;49949;43.060;25.624;2024-02-15T10:48:08;10.30;99.90
63802;DHT22;49949;43.060;25.624;2024-02-15T10:50:35;10.40;99.90
63802;DHT22;49949;43.060;25.624;2024-02-15T10:53:07;10.50;99.90
63802;DHT22;49949;43.060;25.624;2024-02-15T10:55:54;10.50;99.90
63802;DHT22;49949;43.060;25.624;2024-02-15T10:58:26;10.50;99.90
63802;DHT22;49949;43.060;25.624;2024-02-15T11:00:56;10.60;99.90
63802;DHT22;49949;43.060;25.624;2024-02-15T11:03:52;10.70;99.90
63802;DHT22;49949;43.060;25.624;2024-02-15T11:06:26;10.60;99.90
63802;DHT22;49949;43.060;25.624;2024-02-15T11:08:52;10.60;99.90
63802;DHT22;49949;43.060;25.624;2024-02-15T11:11:18;10.60;99.90
63802;DHT22;49949;43.060;25.624;2024-02-15T11:13:46;10.50;99.90
63802;DHT22;49949;43.060;25.624;2024-02-15T11:16:39;10.50;99.90
63802;DHT22;49949;43.060;25.624;2024-02-15T11:19:06;10.40;99.90
63802;DHT22;49949;43.060;25.624;2024-02-15T11:21:57;10.50;99.90
63802;DHT22;49949;43.060;25.624;2024-02-15T11:24:31;10.60;99.90
63802;DHT22;49949;43.060;25.624;2024-02-15T11:27:06;10.60;99.90
63802;DHT22;49949;43.060;25.624;2024-02-15T11:29:52;10.50;99.90
63802;DHT22;49949;43.060;25.624;2024-02-15T11:35:11;10.40;99.90
63802;DHT22;49949;43.060;25.624;2024-02-15T11:40:22;10.40;99.90
63802;DHT22;49949;43.060;25.624;2024-02-15T11:42:53;10.30;99.90
63802;DHT22;49949;43.060;25.624;2024-02-15T11:45:19;10.30;99.90
63802;DHT22;49949;43.060;25.624;2024-02-15T11:47:48;10.30;99.90
63802;DHT22;49949;43.060;25.624;2024-02-15T11:50:17;10.40;99.90
63802;DHT22;49949;43.060;25.624;2024-02-15T11:52:44;10.40;99.90
63802;DHT22;49949;43.060;25.624;2024-02-15T11:55:11;10.40;99.90
63802;DHT22;49949;43.060;25.624;2024-02-15T11:57:42;10.40;99.90
63802;DHT22;49949;43.060;25.624;2024-02-15T12:00:25;10.30;99.90
63802;DHT22;49949;43.060;25.624;2024-02-15T12:03:10;10.30;99.90
63802;DHT22;49949;43.060;25.624;2024-02-15T12:05:55;10.30;99.90
63802;DHT22;49949;43.060;25.624;2024-02-15T12:08:39;10.40;99.90
63802;DHT22;49949;43.060;25.624;2024-02-15T12:11:23;10.60;99.90
63802;DHT22;49949;43.060;25.624;2024-02-15T12:14:11;10.60;99.90
63802;DHT22;49949;43.060;25.624;2024-02-15T12:17:12;10.50;99.90
63802;DHT22;49949;43.060;25.624;2024-02-15T12:19:59;10.70;99.90
63802;DHT22;49949;43.060;25.624;2024-02-15T12:22:46;10.80;99.90
63802;DHT22;49949;43.060;25.624;2024-02-15T12:25:16;10.70;99.90
63802;DHT22;49949;43.060;25.624;2024-02-15T12:27:44;10.90;99.90
63802;DHT22;49949;43.060;25.624;2024-02-15T12:30:16;10.90;99.90
63802;DHT22;49949;43.060;25.624;2024-02-15T12:32:46;10.90;99.90
63802;DHT22;49949;43.060;25.624;2024-02-15T12:35:14;10.80;99.90
63802;DHT22;49949;43.060;25.624;2024-02-15T12:38:05;10.90;99.90
63802;DHT22;49949;43.060;25.624;2024-02-15T12:40:35;10.90;99.90
63802;DHT22;49949;43.060;25.624;2024-02-15T12:43:02;10.90;99.90
63802;DHT22;49949;43.060;25.624;2024-02-15T12:45:31;10.90;99.90
63802;DHT22;49949;43.060;25.624;2024-02-15T12:47:57;10.90;99.90
63802;DHT22;49949;43.060;25.624;2024-02-15T12:50:28;10.80;99.90
63802;DHT22;49949;43.060;25.624;2024-02-15T12:52:54;10.90;99.90
63802;DHT22;49949;43.060;25.624;2024-02-15T12:55:29;10.80;99.90
63802;DHT22;49949;43.060;25.624;2024-02-15T12:58:09;10.70;99.90
63802;DHT22;49949;43.060;25.624;2024-02-15T13:00:39;10.70;99.90
63802;DHT22;49949;43.060;25.624;2024-02-15T13:03:07;10.60;99.90
63802;DHT22;49949;43.060;25.624;2024-02-15T13:05:35;10.60;99.90
63802;DHT22;49949;43.060;25.624;2024-02-15T13:08:04;10.60;99.90
63802;DHT22;49949;43.060;25.624;2024-02-15T13:10:35;10.70;99.90
63802;DHT22;49949;43.060;25.624;2024-02-15T13:13:01;10.70;99.90
63802;DHT22;49949;43.060;25.624;2024-02-15T13:15:27;10.70;99.90
63802;DHT22;49949;43.060;25.624;2024-02-15T13:17:53;10.80;99.90
63802;DHT22;49949;43.060;25.624;2024-02-15T13:20:21;10.90;99.90
63802;DHT22;49949;43.060;25.624;2024-02-15T13:22:55;10.90;99.90
63802;DHT22;49949;43.060;25.624;2024-02-15T13:25:25;10.80;99.90
63802;DHT22;49949;43.060;25.624;2024-02-15T13:27:51;10.60;99.90
63802;DHT22;49949;43.060;25.624;2024-02-15T13:30:17;10.50;99.90
63802;DHT22;49949;43.060;25.624;2024-02-15T13:32:48;10.60;99.90
63802;DHT22;49949;43.060;25.624;2024-02-15T13:35:16;10.50;99.90
63802;DHT22;49949;43.060;25.624;2024-02-15T13:37:52;10.50;99.90
63802;DHT22;49949;43.060;25.624;2024-02-15T13:40:18;10.60;99.90
63802;DHT22;49949;43.060;25.624;2024-02-15T13:42:46;10.50;99.90
63802;DHT22;49949;43.060;25.624;2024-02-15T13:45:21;10.40;99.90
63802;DHT22;49949;43.060;25.624;2024-02-15T13:47:50;10.40;99.90
63802;DHT22;49949;43.060;25.624;2024-02-15T13:50:17;10.30;99.90
63802;DHT22;49949;43.060;25.624;2024-02-15T13:52:46;10.30;99.90
63802;DHT22;49949;43.060;25.624;2024-02-15T13:55:17;10.30;99.90
63802;DHT22;49949;43.060;25.624;2024-02-15T13:57:46;10.20;99.90
63802;DHT22;49949;43.060;25.624;2024-02-15T14:00:14;10.30;99.90
63802;DHT22;49949;43.060;25.624;2024-02-15T14:02:57;10.30;99.90
63802;DHT22;49949;43.060;25.624;2024-02-15T14:05:24;10.30;99.90
63802;DHT22;49949;43.060;25.624;2024-02-15T14:07:55;10.30;99.90
63802;DHT22;49949;43.060;25.624;2024-02-15T14:10:22;10.30;99.90
63802;DHT22;49949;43.060;25.624;2024-02-15T14:12:48;10.30;99.90
63802;DHT22;49949;43.060;25.624;2024-02-15T14:15:15;10.30;99.90
63802;DHT22;49949;43.060;25.624;2024-02-15T14:17:43;10.30;99.90
63802;DHT22;49949;43.060;25.624;2024-02-15T14:20:10;10.30;99.90
63802;DHT22;49949;43.060;25.624;2024-02-15T14:22:44;10.30;99.90
63802;DHT22;49949;43.060;25.624;2024-02-15T14:25:11;10.20;99.90
63802;DHT22;49949;43.060;25.624;2024-02-15T14:27:39;10.10;99.90
63802;DHT22;49949;43.060;25.624;2024-02-15T14:30:06;10.10;99.90
63802;DHT22;49949;43.060;25.624;2024-02-15T14:32:50;10.00;99.90
63802;DHT22;49949;43.060;25.624;2024-02-15T14:35:35;10.00;99.90
63802;DHT22;49949;43.060;25.624;2024-02-15T14:40:39;10.00;99.90
63802;DHT22;49949;43.060;25.624;2024-02-15T14:43:06;9.90;99.90
63802;DHT22;49949;43.060;25.624;2024-02-15T14:45:34;9.90;99.90
63802;DHT22;49949;43.060;25.624;2024-02-15T14:48:00;9.90;99.90
63802;DHT22;49949;43.060;25.624;2024-02-15T14:50:26;9.90;99.90
63802;DHT22;49949;43.060;25.624;2024-02-15T14:52:52;9.90;99.90
63802;DHT22;49949;43.060;25.624;2024-02-15T14:55:19;9.90;99.90
63802;DHT22;49949;43.060;25.624;2024-02-15T14:57:45;9.90;99.90
63802;DHT22;49949;43.060;25.624;2024-02-15T15:00:11;9.90;99.90
63802;DHT22;49949;43.060;25.624;2024-02-15T15:02:41;9.90;99.90
63802;DHT22;49949;43.060;25.624;2024-02-15T15:05:07;9.90;99.90
63802;DHT22;49949;43.060;25.624;2024-02-15T15:07:52;9.90;99.90
63802;DHT22;49949;43.060;25.624;2024-02-15T15:10:36;9.90;99.90
63802;DHT22;49949;43.060;25.624;2024-02-15T15:13:20;9.80;99.90
63802;DHT22;49949;43.060;25.624;2024-02-15T15:15:47;9.80;99.90
63802;DHT22;49949;43.060;25.624;2024-02-15T15:18:13;9.90;99.90
63802;DHT22;49949;43.060;25.624;2024-02-15T15:20:39;9.80;99.90
63802;DHT22;49949;43.060;25.624;2024-02-15T15:23:05;9.80;99.90
63802;DHT22;49949;43.060;25.624;2024-02-15T15:25:35;9.80;99.90
63802;DHT22;49949;43.060;25.624;2024-02-15T15:28:03;9.70;99.90
63802;DHT22;49949;43.060;25.624;2024-02-15T15:30:30;9.70;99.90
63802;DHT22;49949;43.060;25.624;2024-02-15T15:32:56;9.60;99.90
63802;DHT22;49949;43.060;25.624;2024-02-15T15:35:23;9.50;99.90
63802;DHT22;49949;43.060;25.624;2024-02-15T15:37:49;9.40;99.90
63802;DHT22;49949;43.060;25.624;2024-02-15T15:40:18;9.40;99.90
63802;DHT22;49949;43.060;25.624;2024-02-15T15:42:44;9.30;99.90
63802;DHT22;49949;43.060;25.624;2024-02-15T15:45:10;9.30;99.90
63802;DHT22;49949;43.060;25.624;2024-02-15T15:47:38;9.20;99.90
63802;DHT22;49949;43.060;25.624;2024-02-15T15:50:05;9.00;99.90
63802;DHT22;49949;43.060;25.624;2024-02-15T15:52:36;9.00;99.90